Řízení letového provozu České republiky  
Aktualizace dat:  03.03.2015 14:55:17 UTC English version
   METEO Zobrazení stránky:  03.03.2015 14:51:06 UTC  
vysvětlivky
METAR EDDB 031450Z 25014KT 9999 FEW044 BKN300 07/M02 Q1015 NOSIG=
METAR EDDC 031450Z 23011KT 9999 SCT042 07/M02 Q1017 NOSIG=
METAR EDDE 031450Z 22017KT 9999 FEW040 SCT100 08/M03 Q1015 TEMPO 25020G30KT=
METAR EDDF 031450Z 22020G32KT 9999 FEW045 SCT110 10/M00 Q1017 NOSIG=
METAR EDDM 031450Z 25013KT CAVOK 08/M02 Q1021 NOSIG=
METAR EDDN 031450Z 22010KT 190V250 CAVOK 09/M02 Q1019 R28/190095 NOSIG=
METAR EDDP 031450Z 23013KT 9999 SCT045 BKN083 08/M02 Q1016 TEMPO 24015G25KT=
METAR EDDT 031450Z 25015KT 9999 FEW038 BKN250 07/M02 Q1015 NOSIG=
METAR EDQM 031420Z 21012KT 9999 FEW035 05/M04 Q1018=
METAR EPBY 031430Z 26012KT 9999 FEW032 SCT047 06/M01 Q1013 =
METAR EPGD 031430Z 28017G30KT 9999 FEW015TCU BKN021 04/00 Q1009 =
METAR EPKK 031430Z 26015KT 9999 FEW020CB SCT060 05/M03 Q1018 =
METAR EPKT 031430Z 25014KT 9999 SCT045TCU 05/M03 Q1017 =
METAR EPLL 031430Z 27009KT 9999 FEW008 SCT019CB 03/01 Q1015 =
METAR EPPO 031430Z 26017KT 9999 SCT043CB 07/M04 Q1015 =
METAR EPRZ 031430Z 26010KT 9999 SCT023 03/01 Q1017 =
METAR EPWA 031430Z 28014KT 4000 SHRASN FEW005 BKN020CB 02/00 Q1014 TEMPO SHGS SHSN BKN010CB=
METAR EPWR 031430Z 29016G26KT 260V320 CAVOK 08/M04 Q1017 =
METAR LHBP 031430Z 29021KT CAVOK 09/M08 Q1022 NOSIG=
METAR LHSM 031415Z 29014KT CAVOK 11/M06 Q1024 NOSIG=
METAR LKCV 031400Z 26014KT CAVOK 09/M05 Q1019 NOSIG=
METAR LKKB 031400Z 26018KT CAVOK 08/M05 Q1019 NOSIG=
METAR LKKU 031400Z 26011G21KT 200V310 CAVOK 10/M08 Q1020=
METAR LKKV 031430Z 24009KT 9999 FEW043 05/M06 Q1018 R29/19//95 RMK REG QNH 1016=
METAR LKLN 031400Z AUTO 26009KT 230V290 9999 FEW048 06/M04 Q1020=
METAR LKMT 031430Z 26016KT 9999 FEW048 07/M05 Q1019 NOSIG RMK REG QNH 1016=
METAR LKNA 031400Z 28013KT 230V300 CAVOK 07/M06 Q1019 NOSIG=
METAR LKPD 031400Z 25015KT CAVOK 08/M06 Q1019 NOSIG=
METAR LKPR 031430Z 24021KT CAVOK 07/M05 Q1019 NOSIG RMK REG QNH 1016=
METAR LKTB 031430Z 26014KT CAVOK 09/M07 Q1020 NOSIG RMK REG QNH 1016=
METAR LKVO NIL
METAR LOWI 031420Z VRB02KT 9999 FEW060 10/M05 Q1021 R08/CLRD// NOSIG=
METAR LOWL 031420Z 26012KT 230V290 9999 SCT050 09/M02 Q1022 NOSIG=
METAR LOWS 031420Z 29006KT 230V320 9999 FEW058 09/M05 Q1022 NOSIG=
METAR LOWW 031420Z 29018KT CAVOK 09/M04 Q1022 NOSIG=
METAR LZIB 031430Z 30013KT 270V340 CAVOK 09/M05 Q1022 NOSIG=
METAR LZKZ 031430Z 36012KT 9999 -SHRA SCT040 SCT070 06/M03 Q1018 NOSIG=
METAR LZPP 031430Z 28009KT CAVOK 08/M04 Q1022=
METAR LZSL 031430Z 29009KT 260V320 9999 SCT063 06/M06 Q1020=
METAR LZTT 031430Z 25019KT 9999 FEW046 02/M05 Q1017 NOSIG=
METAR LZZI 031430Z 27011KT 9999 FEW060 05/M04 Q1020=